createdAt,value
2018-11-29T00:00:00.397Z,47.95
2018-11-29T00:01:00.188Z,47.89
2018-11-29T00:02:00.315Z,47.98
2018-11-29T00:03:00.565Z,47.94
2018-11-29T00:04:00.283Z,47.96
2018-11-29T00:05:00.302Z,47.98
2018-11-29T00:06:00.233Z,47.99
2018-11-29T00:07:00.119Z,47.96
2018-11-29T00:08:00.174Z,47.96
2018-11-29T00:09:00.651Z,47.91
2018-11-29T00:10:01.055Z,47.95
2018-11-29T00:11:00.557Z,47.93
2018-11-29T00:12:00.079Z,47.99
2018-11-29T00:13:00.700Z,47.94
2018-11-29T00:14:00.122Z,47.95
2018-11-29T00:15:00.397Z,47.91
2018-11-29T00:16:00.313Z,47.89
2018-11-29T00:17:00.374Z,47.92
2018-11-29T00:18:00.261Z,47.99
2018-11-29T00:19:00.265Z,47.94
2018-11-29T00:20:00.407Z,47.88
2018-11-29T00:21:00.348Z,47.88
2018-11-29T00:22:00.184Z,47.9
2018-11-29T00:23:00.552Z,47.91
2018-11-29T00:24:00.158Z,47.89
2018-11-29T00:25:00.565Z,47.87
2018-11-29T00:26:00.166Z,47.86
2018-11-29T00:27:00.462Z,47.91
2018-11-29T00:28:00.470Z,47.89
2018-11-29T00:29:00.168Z,47.84
2018-11-29T00:30:00.668Z,47.83
2018-11-29T00:31:00.254Z,47.83
2018-11-29T00:32:00.230Z,47.85
2018-11-29T00:33:00.411Z,47.84
2018-11-29T00:34:00.511Z,47.89
2018-11-29T00:35:00.314Z,47.9
2018-11-29T00:36:00.079Z,47.85
2018-11-29T00:37:00.324Z,47.86
2018-11-29T00:38:00.196Z,47.86
2018-11-29T00:39:00.217Z,47.82
2018-11-29T00:40:00.231Z,47.92
2018-11-29T00:41:00.178Z,47.9
2018-11-29T00:42:01.086Z,47.84
2018-11-29T00:43:00.168Z,47.86
2018-11-29T00:44:00.399Z,47.83
2018-11-29T00:45:00.395Z,47.9
2018-11-29T00:46:00.274Z,47.91
2018-11-29T00:47:00.294Z,47.89
2018-11-29T00:48:00.273Z,47.89
2018-11-29T00:49:00.126Z,47.87
2018-11-29T00:50:00.235Z,47.94
2018-11-29T00:51:00.181Z,47.93
2018-11-29T00:52:00.211Z,47.93
2018-11-29T00:53:00.290Z,47.86
2018-11-29T00:54:00.447Z,47.92
2018-11-29T00:55:00.289Z,47.84
2018-11-29T00:56:00.663Z,47.87
2018-11-29T00:57:00.533Z,47.88
2018-11-29T00:58:00.517Z,47.92
2018-11-29T00:59:00.440Z,47.9
2018-11-29T01:00:00.372Z,47.88
2018-11-29T01:01:00.198Z,47.89
2018-11-29T01:02:00.840Z,47.87
2018-11-29T01:03:00.197Z,47.84
2018-11-29T01:04:00.296Z,47.85
2018-11-29T01:05:00.418Z,47.84
2018-11-29T01:06:00.243Z,47.83
2018-11-29T01:07:00.216Z,47.87
2018-11-29T01:08:00.127Z,47.83
2018-11-29T01:09:00.606Z,47.82
2018-11-29T01:10:00.471Z,47.79
2018-11-29T01:11:00.372Z,47.77
2018-11-29T01:12:00.356Z,47.77
2018-11-29T01:13:00.245Z,47.82
2018-11-29T01:14:00.373Z,47.88
2018-11-29T01:15:00.590Z,47.87
2018-11-29T01:16:00.319Z,47.86
2018-11-29T01:17:00.187Z,47.76
2018-11-29T01:18:00.831Z,47.81
2018-11-29T01:19:00.107Z,47.84
2018-11-29T01:20:00.529Z,47.82
2018-11-29T01:21:00.201Z,47.86
2018-11-29T01:22:00.246Z,47.83
2018-11-29T01:23:00.336Z,47.82
2018-11-29T01:24:00.235Z,47.79
2018-11-29T01:25:00.115Z,47.82
2018-11-29T01:26:00.359Z,47.77
2018-11-29T01:27:00.533Z,47.75
2018-11-29T01:28:00.379Z,47.76
2018-11-29T01:29:00.139Z,47.76
2018-11-29T01:30:00.707Z,47.82
2018-11-29T01:31:00.648Z,47.79
2018-11-29T01:32:00.219Z,47.77
2018-11-29T01:33:00.113Z,47.78
2018-11-29T01:34:00.209Z,47.82
2018-11-29T01:35:00.351Z,47.8
2018-11-29T01:36:00.079Z,47.78
2018-11-29T01:37:00.322Z,47.73
2018-11-29T01:38:00.534Z,47.78
2018-11-29T01:39:00.274Z,47.83
2018-11-29T01:40:00.498Z,47.78
2018-11-29T01:41:00.193Z,47.78
2018-11-29T01:42:00.492Z,47.8
2018-11-29T01:43:00.249Z,47.77
2018-11-29T01:44:00.322Z,47.78
2018-11-29T01:45:00.181Z,47.79
2018-11-29T01:46:00.536Z,47.79
2018-11-29T01:47:00.401Z,47.77
2018-11-29T01:48:00.498Z,47.74
2018-11-29T01:49:00.440Z,47.76
2018-11-29T01:50:00.132Z,47.74
2018-11-29T01:51:00.332Z,47.75
2018-11-29T01:52:00.466Z,47.78
2018-11-29T01:53:00.369Z,47.75
2018-11-29T01:54:00.242Z,47.76
2018-11-29T01:55:00.665Z,47.78
2018-11-29T01:56:00.371Z,47.79
2018-11-29T01:57:00.168Z,47.74
2018-11-29T01:58:00.424Z,47.75
2018-11-29T01:59:00.487Z,47.78
2018-11-29T02:00:00.643Z,47.71
2018-11-29T02:01:00.516Z,47.77
2018-11-29T02:02:00.193Z,47.79
2018-11-29T02:03:00.067Z,47.77
2018-11-29T02:04:00.251Z,47.77
2018-11-29T02:05:00.661Z,47.81
2018-11-29T02:06:00.333Z,47.86
2018-11-29T02:07:00.652Z,47.77
2018-11-29T02:08:00.208Z,47.77
2018-11-29T02:09:00.066Z,47.82
2018-11-29T02:10:00.140Z,47.76
2018-11-29T02:11:00.306Z,47.76
2018-11-29T02:12:00.968Z,47.74
2018-11-29T02:13:00.247Z,47.75
2018-11-29T02:14:00.371Z,47.76
2018-11-29T02:15:00.128Z,47.78
2018-11-29T02:16:00.285Z,47.8
2018-11-29T02:17:00.154Z,47.82
2018-11-29T02:18:00.329Z,47.81
2018-11-29T02:19:00.027Z,47.79
2018-11-29T02:20:00.103Z,47.79
2018-11-29T02:21:00.342Z,47.77
2018-11-29T02:22:00.158Z,47.81
2018-11-29T02:23:00.446Z,47.77
2018-11-29T02:24:00.020Z,47.82
2018-11-29T02:25:00.153Z,47.79
2018-11-29T02:26:00.030Z,47.83
2018-11-29T02:27:00.157Z,47.82
2018-11-29T02:28:00.215Z,47.79
2018-11-29T02:28:59.958Z,47.82
2018-11-29T02:30:00.215Z,47.82
2018-11-29T02:31:00.204Z,47.85
2018-11-29T02:32:00.352Z,47.83
2018-11-29T02:33:00.413Z,47.83
2018-11-29T02:34:00.160Z,47.84
2018-11-29T02:35:00.441Z,47.76
2018-11-29T02:36:00.113Z,47.79
2018-11-29T02:37:00.340Z,47.81
2018-11-29T02:38:00.146Z,47.86
2018-11-29T02:39:00.112Z,47.83
2018-11-29T02:40:00.536Z,47.82
2018-11-29T02:41:00.249Z,47.8
2018-11-29T02:42:00.196Z,47.82
2018-11-29T02:43:00.217Z,47.79
2018-11-29T02:44:00.783Z,47.78
2018-11-29T02:45:01.065Z,47.77
2018-11-29T02:46:00.555Z,47.81
2018-11-29T02:47:00.007Z,47.8
2018-11-29T02:48:00.357Z,47.78
2018-11-29T02:49:00.334Z,47.77
2018-11-29T02:50:00.306Z,47.77
2018-11-29T02:51:00.416Z,47.79
2018-11-29T02:52:00.470Z,47.81
2018-11-29T02:53:00.203Z,47.79
2018-11-29T02:54:00.540Z,47.77
2018-11-29T02:55:00.457Z,47.77
2018-11-29T02:56:00.346Z,47.78
2018-11-29T02:57:00.257Z,47.74
2018-11-29T02:58:00.196Z,47.78
2018-11-29T02:59:00.190Z,47.77
2018-11-29T03:00:00.467Z,47.77
2018-11-29T03:01:00.064Z,47.75
2018-11-29T03:02:00.226Z,47.78
2018-11-29T03:03:00.359Z,47.79
2018-11-29T03:04:00.169Z,47.79
2018-11-29T03:05:00.579Z,47.79
2018-11-29T03:06:00.176Z,47.79
2018-11-29T03:07:00.162Z,47.78
2018-11-29T03:08:00.050Z,47.77
2018-11-29T03:09:00.201Z,47.73
2018-11-29T03:10:00.432Z,47.78
2018-11-29T03:11:00.236Z,47.79
2018-11-29T03:12:00.363Z,47.75
2018-11-29T03:13:01.065Z,47.79
2018-11-29T03:14:00.189Z,47.81
2018-11-29T03:15:00.537Z,47.77
2018-11-29T03:16:00.181Z,47.82
2018-11-29T03:17:00.307Z,47.83
2018-11-29T03:18:00.226Z,47.82
2018-11-29T03:19:00.591Z,47.74
2018-11-29T03:20:00.246Z,47.81
2018-11-29T03:21:00.130Z,47.75
2018-11-29T03:22:00.036Z,47.77
2018-11-29T03:23:00.209Z,47.71
2018-11-29T03:24:00.498Z,47.75
2018-11-29T03:25:00.107Z,47.73
2018-11-29T03:26:00.535Z,47.72
2018-11-29T03:27:00.306Z,47.79
2018-11-29T03:28:00.426Z,47.76
2018-11-29T03:29:00.435Z,47.8
2018-11-29T03:30:00.209Z,47.77
2018-11-29T03:31:00.529Z,47.77
2018-11-29T03:32:00.498Z,47.8
2018-11-29T03:33:00.491Z,47.76
2018-11-29T03:34:00.368Z,47.79
2018-11-29T03:35:00.334Z,47.75
2018-11-29T03:36:01.189Z,47.82
2018-11-29T03:37:00.329Z,47.78
2018-11-29T03:38:00.090Z,47.77
2018-11-29T03:39:00.256Z,47.76
2018-11-29T03:40:00.672Z,47.75
2018-11-29T03:41:00.373Z,47.75
2018-11-29T03:42:00.319Z,47.77
2018-11-29T03:43:00.343Z,47.73
2018-11-29T03:44:00.488Z,47.72
2018-11-29T03:45:00.343Z,47.79
2018-11-29T03:46:00.546Z,47.76
2018-11-29T03:47:00.118Z,47.76
2018-11-29T03:48:00.402Z,47.76
2018-11-29T03:49:00.354Z,47.73
2018-11-29T03:50:00.574Z,47.71
2018-11-29T03:51:00.238Z,47.72
2018-11-29T03:52:00.116Z,47.73
2018-11-29T03:53:00.252Z,47.75
2018-11-29T03:54:00.348Z,47.77
2018-11-29T03:55:00.159Z,47.73
2018-11-29T03:56:00.215Z,47.74
2018-11-29T03:57:00.077Z,47.72
2018-11-29T03:58:00.231Z,47.77
2018-11-29T03:59:00.151Z,47.8
2018-11-29T04:00:00.312Z,47.83
2018-11-29T04:01:00.164Z,47.78
2018-11-29T04:02:00.595Z,47.79
2018-11-29T04:03:00.522Z,47.8
2018-11-29T04:04:00.252Z,47.78
2018-11-29T04:05:00.246Z,47.71
2018-11-29T04:06:00.097Z,47.78
2018-11-29T04:07:00.176Z,47.77
2018-11-29T04:08:00.163Z,47.81
2018-11-29T04:09:00.162Z,47.79
2018-11-29T04:10:00.349Z,47.77
2018-11-29T04:11:00.092Z,47.79
2018-11-29T04:12:00.360Z,47.78
2018-11-29T04:13:00.528Z,47.74
2018-11-29T04:14:00.152Z,47.81
2018-11-29T04:14:59.961Z,47.78
2018-11-29T04:16:00.575Z,47.77
2018-11-29T04:17:00.285Z,47.78
2018-11-29T04:18:00.235Z,47.75
2018-11-29T04:19:00.322Z,47.77
2018-11-29T04:20:00.069Z,47.79
2018-11-29T04:21:00.240Z,47.79
2018-11-29T04:22:00.311Z,47.81
2018-11-29T04:23:00.193Z,47.8
2018-11-29T04:24:00.941Z,47.83
2018-11-29T04:25:00.295Z,47.83
2018-11-29T04:26:00.220Z,47.8
2018-11-29T04:27:00.424Z,47.77
2018-11-29T04:28:00.557Z,47.85
2018-11-29T04:29:00.049Z,47.8
2018-11-29T04:30:00.187Z,47.79
2018-11-29T04:31:00.529Z,47.8
2018-11-29T04:32:00.371Z,47.75
2018-11-29T04:33:00.243Z,47.79
2018-11-29T04:34:00.211Z,47.74
2018-11-29T04:35:00.320Z,47.74
2018-11-29T04:36:00.078Z,47.73
2018-11-29T04:37:00.545Z,47.8
2018-11-29T04:38:00.119Z,47.79
2018-11-29T04:39:00.266Z,47.76
2018-11-29T04:40:00.289Z,47.81
2018-11-29T04:41:00.595Z,47.82
2018-11-29T04:42:00.405Z,47.8
2018-11-29T04:43:00.206Z,47.89
2018-11-29T04:44:00.356Z,47.93
2018-11-29T04:45:00.112Z,47.91
2018-11-29T04:46:00.410Z,47.95
2018-11-29T04:47:00.143Z,47.96
2018-11-29T04:48:00.193Z,48.02
2018-11-29T04:49:00.167Z,48.02
2018-11-29T04:50:00.495Z,48.01
2018-11-29T04:50:59.986Z,47.95
2018-11-29T04:52:00.618Z,47.99
2018-11-29T04:53:00.040Z,48.04
2018-11-29T04:54:00.326Z,48
2018-11-29T04:55:00.215Z,47.96
2018-11-29T04:56:00.099Z,47.93
2018-11-29T04:57:00.198Z,47.96
2018-11-29T04:58:00.028Z,47.94
2018-11-29T04:59:00.202Z,47.89
2018-11-29T05:00:00.260Z,47.91
2018-11-29T05:01:00.266Z,47.92
2018-11-29T05:02:00.228Z,47.93
2018-11-29T05:03:00.103Z,47.92
2018-11-29T05:04:00.268Z,47.9
2018-11-29T05:05:00.102Z,47.95
2018-11-29T05:06:00.574Z,47.93
2018-11-29T05:06:59.967Z,47.93
2018-11-29T05:08:00.511Z,47.94
2018-11-29T05:09:00.205Z,47.93
2018-11-29T05:10:00.245Z,47.87
2018-11-29T05:11:00.188Z,47.88
2018-11-29T05:11:59.983Z,47.87
2018-11-29T05:13:00.387Z,47.81
2018-11-29T05:14:00.174Z,47.82
2018-11-29T05:15:00.134Z,47.83
2018-11-29T05:16:00.398Z,47.79
2018-11-29T05:17:00.429Z,47.8
2018-11-29T05:18:00.162Z,47.78
2018-11-29T05:19:00.114Z,47.78
2018-11-29T05:20:00.915Z,47.77
2018-11-29T05:21:00.323Z,47.75
2018-11-29T05:22:00.083Z,47.75
2018-11-29T05:23:00.662Z,47.78
2018-11-29T05:24:00.154Z,47.73
2018-11-29T05:25:00.168Z,47.71
2018-11-29T05:26:00.122Z,47.79
2018-11-29T05:27:00.213Z,47.74
2018-11-29T05:27:59.959Z,47.76
2018-11-29T05:29:00.197Z,47.76
2018-11-29T05:30:00.249Z,47.75
2018-11-29T05:31:00.202Z,47.8
2018-11-29T05:32:00.144Z,47.78
2018-11-29T05:33:00.024Z,47.78
2018-11-29T05:34:00.144Z,47.79
2018-11-29T05:35:00.004Z,47.77
2018-11-29T05:36:00.091Z,47.82
2018-11-29T05:37:00.456Z,47.76
2018-11-29T05:38:00.380Z,47.75
2018-11-29T05:39:00.214Z,47.79
2018-11-29T05:40:00.262Z,47.79
2018-11-29T05:41:00.185Z,47.78
2018-11-29T05:42:00.157Z,47.77
2018-11-29T05:43:00.057Z,47.72
2018-11-29T05:43:59.894Z,47.77
2018-11-29T05:45:00.003Z,47.73
2018-11-29T05:46:00.072Z,47.71
2018-11-29T05:47:00.009Z,47.76
2018-11-29T05:48:00.291Z,47.71
2018-11-29T05:49:00.124Z,47.77
2018-11-29T05:50:00.091Z,47.74
2018-11-29T05:51:00.743Z,47.74
2018-11-29T05:52:00.062Z,47.73
2018-11-29T05:53:00.070Z,47.73
2018-11-29T05:54:00.101Z,47.73
2018-11-29T05:55:00.391Z,47.71
2018-11-29T05:56:00.309Z,47.69
2018-11-29T05:57:00.197Z,47.71
2018-11-29T05:58:00.373Z,47.71
2018-11-29T05:59:00.207Z,47.66
2018-11-29T06:00:00.248Z,47.64
2018-11-29T06:01:00.976Z,47.67
2018-11-29T06:02:00.184Z,47.64
2018-11-29T06:03:00.394Z,47.67
2018-11-29T06:04:00.094Z,47.68
2018-11-29T06:04:59.966Z,47.7
2018-11-29T06:06:00.403Z,47.72
2018-11-29T06:07:00.303Z,47.65
2018-11-29T06:08:00.125Z,47.67
2018-11-29T06:09:00.367Z,47.64
2018-11-29T06:10:00.080Z,47.7
2018-11-29T06:11:00.028Z,47.65
2018-11-29T06:11:59.912Z,47.64
2018-11-29T06:13:00.245Z,47.65
2018-11-29T06:13:59.964Z,47.67
2018-11-29T06:15:00.111Z,47.66
2018-11-29T06:16:00.164Z,47.68
2018-11-29T06:17:00.436Z,47.7
2018-11-29T06:18:00.534Z,47.67
2018-11-29T06:19:00.234Z,47.65
2018-11-29T06:20:00.340Z,47.7
2018-11-29T06:20:59.993Z,47.64
2018-11-29T06:22:00.942Z,47.65
2018-11-29T06:23:00.487Z,47.65
2018-11-29T06:24:00.101Z,47.69
2018-11-29T06:25:00.197Z,47.69
2018-11-29T06:26:00.086Z,47.67
2018-11-29T06:27:00.171Z,47.65
2018-11-29T06:27:59.995Z,47.7
2018-11-29T06:29:00.348Z,47.71
2018-11-29T06:30:00.225Z,47.7
2018-11-29T06:31:00.528Z,47.67
2018-11-29T06:32:00.272Z,47.68
2018-11-29T06:32:59.919Z,47.67
2018-11-29T06:34:00.138Z,47.77
2018-11-29T06:35:00.004Z,47.73
2018-11-29T06:36:02.376Z,47.71
2018-11-29T06:37:00.341Z,47.75
2018-11-29T06:38:00.052Z,47.77
2018-11-29T06:39:00.462Z,47.74
2018-11-29T06:40:00.103Z,47.73
2018-11-29T06:41:00.194Z,47.74
2018-11-29T06:42:00.080Z,47.75
2018-11-29T06:43:00.200Z,47.77
2018-11-29T06:43:59.900Z,47.79
2018-11-29T06:45:00.102Z,47.78
2018-11-29T06:46:00.629Z,47.77
2018-11-29T06:47:00.310Z,47.81
2018-11-29T06:48:00.524Z,47.82
2018-11-29T06:48:59.957Z,47.76
2018-11-29T06:50:00.229Z,47.81
2018-11-29T06:51:00.024Z,47.79
2018-11-29T06:52:00.433Z,47.76
2018-11-29T06:52:59.980Z,47.78
2018-11-29T06:53:59.996Z,47.72
2018-11-29T06:55:00.513Z,47.72
2018-11-29T06:56:00.098Z,47.75
2018-11-29T06:57:00.180Z,47.74
2018-11-29T06:58:00.587Z,47.68
2018-11-29T06:59:00.341Z,47.73
2018-11-29T06:59:59.949Z,47.66
2018-11-29T07:01:00.067Z,47.63
2018-11-29T07:02:00.139Z,47.66
2018-11-29T07:03:00.452Z,47.63
2018-11-29T07:04:00.266Z,47.61
2018-11-29T07:05:00.104Z,47.62
2018-11-29T07:06:00.248Z,47.59
2018-11-29T07:07:00.137Z,47.56
2018-11-29T07:08:00.136Z,47.56
2018-11-29T07:09:00.205Z,47.59
2018-11-29T07:10:00.042Z,47.55
2018-11-29T07:10:59.942Z,47.62
2018-11-29T07:11:59.912Z,47.62
2018-11-29T07:13:00.082Z,47.53
2018-11-29T07:13:59.905Z,47.58
2018-11-29T07:15:00.034Z,47.6
2018-11-29T07:16:00.123Z,47.59
2018-11-29T07:16:59.988Z,47.63
2018-11-29T07:18:00.046Z,47.57
2018-11-29T07:18:59.926Z,47.6
2018-11-29T07:20:00.013Z,47.65
2018-11-29T07:21:00.114Z,47.63
2018-11-29T07:22:00.031Z,47.57
2018-11-29T07:23:00.159Z,47.64
2018-11-29T07:23:59.996Z,47.62
2018-11-29T07:25:00.046Z,47.6
2018-11-29T07:26:00.187Z,47.61
2018-11-29T07:26:59.965Z,47.65
2018-11-29T07:28:00.421Z,47.62
2018-11-29T07:28:59.991Z,47.61
2018-11-29T07:30:00.120Z,47.6
2018-11-29T07:31:00.052Z,47.6
2018-11-29T07:32:00.198Z,47.65
2018-11-29T07:33:00.266Z,47.57
2018-11-29T07:34:00.074Z,47.63
2018-11-29T07:35:00.128Z,47.6
2018-11-29T07:36:00.083Z,47.62
2018-11-29T07:37:00.474Z,47.66
2018-11-29T07:38:00.465Z,47.63
2018-11-29T07:39:00.390Z,47.59
2018-11-29T07:40:00.005Z,47.63
2018-11-29T07:41:00.081Z,47.62
2018-11-29T07:42:00.210Z,47.68
2018-11-29T07:43:00.231Z,47.58
2018-11-29T07:44:00.222Z,47.63
2018-11-29T07:45:00.056Z,47.62
2018-11-29T07:46:00.150Z,47.59
2018-11-29T07:47:00.339Z,47.56
2018-11-29T07:48:00.171Z,47.62
2018-11-29T07:49:00.208Z,47.59
2018-11-29T07:50:00.097Z,47.6
2018-11-29T07:51:00.168Z,47.61
2018-11-29T07:52:00.920Z,47.61
2018-11-29T07:53:00.088Z,47.61
2018-11-29T07:54:00.196Z,47.66
2018-11-29T07:55:00.106Z,47.61
2018-11-29T07:55:59.995Z,47.63
2018-11-29T07:56:59.978Z,47.63
2018-11-29T07:58:00.098Z,47.57
2018-11-29T07:59:00.336Z,47.66
2018-11-29T07:59:59.823Z,47.61
2018-11-29T08:01:00.258Z,47.64
2018-11-29T08:02:00.458Z,47.63
2018-11-29T08:03:00.315Z,47.66
2018-11-29T08:04:00.063Z,47.63
2018-11-29T08:05:00.424Z,47.65
2018-11-29T08:06:00.868Z,47.66
2018-11-29T08:07:00.093Z,47.65
2018-11-29T08:08:00.244Z,47.68
2018-11-29T08:08:59.931Z,47.62
2018-11-29T08:10:00.057Z,47.66
2018-11-29T08:11:00.028Z,47.64
2018-11-29T08:11:59.943Z,47.63
2018-11-29T08:12:59.985Z,47.62
2018-11-29T08:14:00.420Z,47.65
2018-11-29T08:15:00.134Z,47.61
2018-11-29T08:16:00.344Z,47.66
2018-11-29T08:16:59.965Z,47.59
2018-11-29T08:18:00.168Z,47.59
2018-11-29T08:19:00.258Z,47.66
2018-11-29T08:20:00.367Z,47.6
2018-11-29T08:21:00.010Z,47.64
2018-11-29T08:22:00.118Z,47.62
2018-11-29T08:23:00.368Z,47.61
2018-11-29T08:24:00.332Z,47.62
2018-11-29T08:24:59.953Z,47.61
2018-11-29T08:25:59.990Z,47.61
2018-11-29T08:27:00.332Z,47.57
2018-11-29T08:27:59.927Z,47.63
2018-11-29T08:29:00.059Z,47.6
2018-11-29T08:30:00.170Z,47.6
2018-11-29T08:31:00.229Z,47.63
2018-11-29T08:32:00.165Z,47.62
2018-11-29T08:33:00.076Z,47.6
2018-11-29T08:34:00.085Z,47.55
2018-11-29T08:35:00.191Z,47.57
2018-11-29T08:35:59.952Z,47.63
2018-11-29T08:37:00.145Z,47.59
2018-11-29T08:38:00.204Z,47.61
2018-11-29T08:39:00.141Z,47.62
2018-11-29T08:39:59.980Z,47.62
2018-11-29T08:41:00.950Z,47.61
2018-11-29T08:41:59.992Z,47.6
2018-11-29T08:43:00.101Z,47.63
2018-11-29T08:43:59.925Z,47.59
2018-11-29T08:45:00.055Z,47.56
2018-11-29T08:46:00.189Z,47.62
2018-11-29T08:46:59.919Z,47.6
2018-11-29T08:48:00.372Z,47.59
2018-11-29T08:48:59.945Z,47.6
2018-11-29T08:50:00.104Z,47.59
2018-11-29T08:50:59.873Z,47.54
2018-11-29T08:51:59.980Z,47.56
2018-11-29T08:53:00.211Z,47.64
2018-11-29T08:53:59.853Z,47.59
2018-11-29T08:55:00.143Z,47.61
2018-11-29T08:55:59.963Z,47.59
2018-11-29T08:56:59.932Z,47.57
2018-11-29T08:57:59.953Z,47.55
2018-11-29T08:59:00.097Z,47.61
2018-11-29T09:00:00.028Z,47.57
2018-11-29T09:01:00.026Z,47.59
2018-11-29T09:02:00.108Z,47.57
2018-11-29T09:03:02.660Z,47.61
2018-11-29T09:04:00.084Z,47.55
2018-11-29T09:05:00.174Z,47.59
2018-11-29T09:06:00.195Z,47.58
2018-11-29T09:07:00.158Z,47.57
2018-11-29T09:08:00.305Z,47.57
2018-11-29T09:09:00.158Z,47.56
2018-11-29T09:09:59.981Z,47.65
2018-11-29T09:11:00.104Z,47.59
2018-11-29T09:11:59.802Z,47.6
2018-11-29T09:13:00.144Z,47.6
2018-11-29T09:14:00.223Z,47.56
2018-11-29T09:15:00.378Z,47.59
2018-11-29T09:16:00.193Z,47.55
2018-11-29T09:17:00.244Z,47.59
2018-11-29T09:18:00.063Z,47.57
2018-11-29T09:19:00.028Z,47.55
2018-11-29T09:20:00.301Z,47.59
2018-11-29T09:20:59.842Z,47.55
2018-11-29T09:21:59.960Z,47.54
2018-11-29T09:23:00.241Z,47.56
2018-11-29T09:24:00.246Z,47.57
2018-11-29T09:25:00.066Z,47.58
2018-11-29T09:26:00.086Z,47.54
2018-11-29T09:26:59.984Z,47.55
2018-11-29T09:28:00.047Z,47.56
2018-11-29T09:29:00.162Z,47.6
2018-11-29T09:30:00.083Z,47.61
2018-11-29T09:31:00.441Z,47.55
2018-11-29T09:32:00.158Z,47.59
2018-11-29T09:32:59.952Z,47.51
2018-11-29T09:34:00.107Z,47.51
2018-11-29T09:35:00.013Z,47.52
2018-11-29T09:36:00.126Z,47.51
2018-11-29T09:36:59.799Z,47.52
2018-11-29T09:37:59.944Z,47.54
2018-11-29T09:39:00.156Z,47.54
2018-11-29T09:40:00.120Z,47.53
2018-11-29T09:41:00.353Z,47.57
2018-11-29T09:42:00.236Z,47.57
2018-11-29T09:43:00.168Z,47.49
2018-11-29T09:43:59.967Z,47.58
2018-11-29T09:45:00.253Z,47.51
2018-11-29T09:46:00.518Z,47.5
2018-11-29T09:47:00.511Z,47.53
2018-11-29T09:48:00.155Z,47.5
2018-11-29T09:49:00.381Z,47.54
2018-11-29T09:50:00.157Z,47.54
2018-11-29T09:50:59.790Z,47.54
2018-11-29T09:52:00.040Z,47.48
2018-11-29T09:53:00.014Z,47.55
2018-11-29T09:54:00.419Z,47.53
2018-11-29T09:55:00.365Z,47.52
2018-11-29T09:55:59.933Z,47.53
2018-11-29T09:57:00.020Z,47.57
2018-11-29T09:57:59.836Z,47.54
2018-11-29T09:59:00.079Z,47.58
2018-11-29T10:00:00.166Z,47.46
2018-11-29T10:01:00.001Z,47.43
2018-11-29T10:02:00.184Z,47.28
2018-11-29T10:03:00.374Z,47.08
2018-11-29T10:04:00.121Z,47.21
2018-11-29T10:04:59.806Z,47.03
2018-11-29T10:06:00.100Z,47.09
2018-11-29T10:06:59.840Z,46.95
2018-11-29T10:08:01.711Z,46.76
2018-11-29T10:09:00.046Z,46.67
2018-11-29T10:09:59.945Z,46.7
2018-11-29T10:11:00.088Z,46.59
2018-11-29T10:12:00.183Z,46.5
2018-11-29T10:13:00.030Z,46.61
2018-11-29T10:14:01.149Z,46.64
2018-11-29T10:14:59.961Z,46.62
2018-11-29T10:16:00.371Z,46.55
2018-11-29T10:16:59.890Z,46.45
2018-11-29T10:18:00.066Z,46.27
2018-11-29T10:19:00.055Z,46.4
2018-11-29T10:19:59.995Z,46.44
2018-11-29T10:21:00.367Z,46.34
2018-11-29T10:21:59.846Z,46.25
2018-11-29T10:23:00.313Z,46.13
2018-11-29T10:23:59.944Z,46.32
2018-11-29T10:24:59.964Z,46.53
2018-11-29T10:25:59.938Z,46.54
2018-11-29T10:27:00.104Z,46.72
2018-11-29T10:28:00.434Z,46.77
2018-11-29T10:29:00.044Z,46.78
2018-11-29T10:30:00.088Z,46.87
2018-11-29T10:30:59.942Z,46.82
2018-11-29T10:32:00.296Z,46.75
2018-11-29T10:33:00.087Z,46.88
2018-11-29T10:34:00.083Z,46.76
2018-11-29T10:34:59.945Z,46.28
2018-11-29T10:35:59.791Z,46.48
2018-11-29T10:37:00.030Z,46.71
2018-11-29T10:37:59.927Z,46.74
2018-11-29T10:39:00.160Z,46.78
2018-11-29T10:40:00.137Z,46.83
2018-11-29T10:41:00.119Z,46.89
2018-11-29T10:42:00.029Z,46.91
2018-11-29T10:43:00.107Z,46.95
2018-11-29T10:44:00.053Z,46.94
2018-11-29T10:45:00.344Z,46.95
2018-11-29T10:46:00.176Z,46.96
2018-11-29T10:46:59.862Z,46.97
2018-11-29T10:48:00.071Z,47.01
2018-11-29T10:48:59.880Z,46.87
2018-11-29T10:50:00.118Z,47.04
2018-11-29T10:51:00.052Z,47
2018-11-29T10:51:59.936Z,46.99
2018-11-29T10:53:00.280Z,47.01
2018-11-29T10:54:00.533Z,47.06
2018-11-29T10:55:00.082Z,47.01
2018-11-29T10:56:00.233Z,46.96
2018-11-29T10:57:00.442Z,47.01
2018-11-29T10:58:00.135Z,47.03
2018-11-29T10:58:59.879Z,47.04
2018-11-29T11:00:00.600Z,47.06
2018-11-29T11:01:00.260Z,47.08
2018-11-29T11:01:59.753Z,47.07
2018-11-29T11:02:59.925Z,47.1
2018-11-29T11:04:00.029Z,47.1
2018-11-29T11:05:00.023Z,47.06
2018-11-29T11:06:00.300Z,47.13
2018-11-29T11:07:00.387Z,47.03
2018-11-29T11:08:00.259Z,47.09
2018-11-29T11:09:00.114Z,47.11
2018-11-29T11:10:00.280Z,47.13
2018-11-29T11:11:00.026Z,47.16
2018-11-29T11:12:00.114Z,46.75
2018-11-29T11:12:59.795Z,46.79
2018-11-29T11:14:00.084Z,47.02
2018-11-29T11:15:00.073Z,47.08
2018-11-29T11:16:00.532Z,46.98
2018-11-29T11:17:00.106Z,47.03
2018-11-29T11:17:59.834Z,47.04
2018-11-29T11:18:59.976Z,47.03
2018-11-29T11:20:00.023Z,47.03
2018-11-29T11:20:59.945Z,47.09
2018-11-29T11:22:00.187Z,47.17
2018-11-29T11:23:00.245Z,47.14
2018-11-29T11:23:59.919Z,47.16
2018-11-29T11:25:00.177Z,47.16
2018-11-29T11:26:00.526Z,47.16
2018-11-29T11:27:00.049Z,47.15
2018-11-29T11:27:59.850Z,47.13
2018-11-29T11:29:00.027Z,47.15
2018-11-29T11:29:59.862Z,47.14
2018-11-29T11:31:00.402Z,47.12
2018-11-29T11:32:00.742Z,47.13
2018-11-29T11:33:00.141Z,47.13
2018-11-29T11:34:00.547Z,47.07
2018-11-29T11:34:59.871Z,47.09
2018-11-29T11:36:00.296Z,47.12
2018-11-29T11:37:00.038Z,47.07
2018-11-29T11:37:59.942Z,47.07
2018-11-29T11:38:59.830Z,47.1
2018-11-29T11:40:00.288Z,47.12
2018-11-29T11:40:59.864Z,47.13
2018-11-29T11:41:59.889Z,47.14
2018-11-29T11:43:04.638Z,47.18
2018-11-29T11:43:59.903Z,47.14
2018-11-29T11:44:59.991Z,47.17
2018-11-29T11:46:00.468Z,47.16
2018-11-29T11:47:00.130Z,47.15
2018-11-29T11:48:03.982Z,47.1
2018-11-29T11:49:00.829Z,47.09
2018-11-29T11:49:59.790Z,47.08
2018-11-29T11:51:00.183Z,47.15
2018-11-29T11:52:00.018Z,47.08
2018-11-29T11:52:59.991Z,47.1
2018-11-29T11:54:00.378Z,47.12
2018-11-29T11:55:00.209Z,47.13
2018-11-29T11:56:00.102Z,47.19
2018-11-29T11:56:59.824Z,47.17
2018-11-29T11:57:59.859Z,47.17
2018-11-29T11:58:59.732Z,47.17
2018-11-29T11:59:59.871Z,47.14
2018-11-29T12:01:00.285Z,47.15
2018-11-29T12:02:00.135Z,47.21
2018-11-29T12:02:59.997Z,47.22
2018-11-29T12:04:00.243Z,47.2
2018-11-29T12:05:00.031Z,47.18
2018-11-29T12:06:00.102Z,47.18
2018-11-29T12:07:00.381Z,47.16
2018-11-29T12:08:00.107Z,47.21
2018-11-29T12:09:00.296Z,47.23
2018-11-29T12:10:00.426Z,47.16
2018-11-29T12:10:59.959Z,47.2
2018-11-29T12:11:59.994Z,47.23
2018-11-29T12:12:59.860Z,47.22
2018-11-29T12:13:59.988Z,47.22
2018-11-29T12:15:00.078Z,47.22
2018-11-29T12:15:59.942Z,47.12
2018-11-29T12:17:00.043Z,47.22
2018-11-29T12:17:59.785Z,47.2
2018-11-29T12:19:02.872Z,47.22
2018-11-29T12:20:00.031Z,47.19
2018-11-29T12:21:00.409Z,47.24
2018-11-29T12:21:59.814Z,47.19
2018-11-29T12:23:00.072Z,47.24
2018-11-29T12:24:00.119Z,47.25
2018-11-29T12:24:59.944Z,47.18
2018-11-29T12:26:00.048Z,47.24
2018-11-29T12:26:59.873Z,47.23
2018-11-29T12:28:00.109Z,47.21
2018-11-29T12:28:59.882Z,47.14
2018-11-29T12:29:59.974Z,47.23
2018-11-29T12:31:00.078Z,47.23
2018-11-29T12:31:59.964Z,47.24
2018-11-29T12:33:00.004Z,47.2
2018-11-29T12:33:59.949Z,47.27
2018-11-29T12:35:00.240Z,47.24
2018-11-29T12:35:59.791Z,47.27
2018-11-29T12:36:59.967Z,47.27
2018-11-29T12:38:00.054Z,47.24
2018-11-29T12:39:00.200Z,47.28
2018-11-29T12:40:00.411Z,47.25
2018-11-29T12:41:00.028Z,47.25
2018-11-29T12:41:59.966Z,47.32
2018-11-29T12:42:59.784Z,47.3
2018-11-29T12:44:00.337Z,47.3
2018-11-29T12:45:00.157Z,47.3
2018-11-29T12:46:00.428Z,47.33
2018-11-29T12:47:00.233Z,47.29
2018-11-29T12:48:00.006Z,47.32
2018-11-29T12:48:59.820Z,47.28
2018-11-29T12:49:59.867Z,47.3
2018-11-29T12:51:00.073Z,47.28
2018-11-29T12:52:00.169Z,47.31
2018-11-29T12:53:00.559Z,47.3
2018-11-29T12:54:00.269Z,47.28